sensor_id;sensor_type;location;lat;lon;timestamp;pressure;altitude;pressure_sealevel;temperature;humidity
31088;BME280;17745;55.914;37.554;2023-07-28T00:00:10;97622.00;;;23.76;76.73
31088;BME280;17745;55.914;37.554;2023-07-28T00:03:06;97618.94;;;23.77;76.67
31088;BME280;17745;55.914;37.554;2023-07-28T00:05:43;97625.91;;;23.82;76.63
31088;BME280;17745;55.914;37.554;2023-07-28T00:08:49;97615.87;;;23.86;76.56
31088;BME280;17745;55.914;37.554;2023-07-28T00:15:19;97622.94;;;24.09;76.43
31088;BME280;17745;55.914;37.554;2023-07-28T00:18:37;97643.78;;;24.12;76.44
31088;BME280;17745;55.914;37.554;2023-07-28T00:21:33;97646.87;;;24.14;76.23
31088;BME280;17745;55.914;37.554;2023-07-28T00:24:32;97642.25;;;24.11;76.38
31088;BME280;17745;55.914;37.554;2023-07-28T00:27:25;97658.06;;;24.09;76.50
31088;BME280;17745;55.914;37.554;2023-07-28T00:29:58;97648.41;;;24.04;76.39
31088;BME280;17745;55.914;37.554;2023-07-28T00:32:44;97660.44;;;24.18;75.88
31088;BME280;17745;55.914;37.554;2023-07-28T00:35:44;97660.37;;;24.07;76.12
31088;BME280;17745;55.914;37.554;2023-07-28T00:38:41;97671.91;;;24.00;76.13
31088;BME280;17745;55.914;37.554;2023-07-28T00:41:14;97674.19;;;23.94;76.30
31088;BME280;17745;55.914;37.554;2023-07-28T00:43:54;97673.81;;;23.92;76.33
31088;BME280;17745;55.914;37.554;2023-07-28T00:46:32;97671.47;;;23.87;76.34
31088;BME280;17745;55.914;37.554;2023-07-28T00:52:23;97674.19;;;23.94;76.17
31088;BME280;17745;55.914;37.554;2023-07-28T00:55:03;97666.09;;;23.91;76.23
31088;BME280;17745;55.914;37.554;2023-07-28T00:57:41;97662.59;;;23.87;76.37
31088;BME280;17745;55.914;37.554;2023-07-28T01:00:16;97660.66;;;23.87;76.28
31088;BME280;17745;55.914;37.554;2023-07-28T01:02:47;97662.19;;;23.84;76.18
31088;BME280;17745;55.914;37.554;2023-07-28T01:05:46;97671.84;;;23.82;76.19
31088;BME280;17745;55.914;37.554;2023-07-28T01:08:47;97665.66;;;23.81;76.02
31088;BME280;17745;55.914;37.554;2023-07-28T01:11:24;97659.50;;;23.81;75.66
31088;BME280;17745;55.914;37.554;2023-07-28T01:14:05;97656.41;;;23.79;75.91
31088;BME280;17745;55.914;37.554;2023-07-28T01:16:46;97641.31;;;23.74;75.78
31088;BME280;17745;55.914;37.554;2023-07-28T01:19:26;97645.16;;;23.77;75.74
31088;BME280;17745;55.914;37.554;2023-07-28T01:22:21;97648.25;;;23.75;75.71
31088;BME280;17745;55.914;37.554;2023-07-28T01:25:32;97649.03;;;23.76;75.61
31088;BME280;17745;55.914;37.554;2023-07-28T01:29:03;97638.63;;;23.78;75.46
31088;BME280;17745;55.914;37.554;2023-07-28T01:32:04;97638.25;;;23.79;75.41
31088;BME280;17745;55.914;37.554;2023-07-28T01:35:07;97644.81;;;23.82;75.36
31088;BME280;17745;55.914;37.554;2023-07-28T01:38:40;97625.13;;;23.78;75.34
31088;BME280;17745;55.914;37.554;2023-07-28T01:41:32;97622.06;;;23.83;75.04
31088;BME280;17745;55.914;37.554;2023-07-28T01:48:18;97625.94;;;23.89;75.06
31088;BME280;17745;55.914;37.554;2023-07-28T01:51:03;97615.16;;;23.93;74.85
31088;BME280;17745;55.914;37.554;2023-07-28T01:53:51;97610.88;;;23.95;74.84
31088;BME280;17745;55.914;37.554;2023-07-28T01:57:00;97620.56;;;24.00;74.70
31088;BME280;17745;55.914;37.554;2023-07-28T02:00:02;97616.75;;;24.05;74.68
31088;BME280;17745;55.914;37.554;2023-07-28T02:02:50;97611.34;;;24.12;74.46
31088;BME280;17745;55.914;37.554;2023-07-28T02:09:11;97612.16;;;24.23;74.32
31088;BME280;17745;55.914;37.554;2023-07-28T02:11:56;97603.69;;;24.29;74.04
31088;BME280;17745;55.914;37.554;2023-07-28T02:14:26;97597.88;;;24.26;74.17
31088;BME280;17745;55.914;37.554;2023-07-28T02:17:24;97602.13;;;24.27;74.03
31088;BME280;17745;55.914;37.554;2023-07-28T02:20:05;97595.56;;;24.29;73.91
31088;BME280;17745;55.914;37.554;2023-07-28T02:23:26;97598.66;;;24.31;73.83
31088;BME280;17745;55.914;37.554;2023-07-28T02:29:42;97609.84;;;24.33;73.37
31088;BME280;17745;55.914;37.554;2023-07-28T02:32:20;97603.28;;;24.34;73.40
31088;BME280;17745;55.914;37.554;2023-07-28T02:34:58;97595.19;;;24.34;73.48
31088;BME280;17745;55.914;37.554;2023-07-28T02:37:32;97589.38;;;24.32;73.43
31088;BME280;17745;55.914;37.554;2023-07-28T02:40:23;97612.59;;;24.40;73.36
31088;BME280;17745;55.914;37.554;2023-07-28T02:42:59;97608.34;;;24.46;73.22
31088;BME280;17745;55.914;37.554;2023-07-28T02:45:41;97611.81;;;24.50;73.09
31088;BME280;17745;55.914;37.554;2023-07-28T02:48:36;97617.22;;;24.58;72.84
31088;BME280;17745;55.914;37.554;2023-07-28T02:51:27;97627.31;;;24.61;72.93
31088;BME280;17745;55.914;37.554;2023-07-28T02:54:01;97632.69;;;24.64;72.86
31088;BME280;17745;55.914;37.554;2023-07-28T02:56:57;97627.66;;;24.66;72.70
31088;BME280;17745;55.914;37.554;2023-07-28T02:59:40;97636.19;;;24.72;72.42
31088;BME280;17745;55.914;37.554;2023-07-28T03:05:45;97656.72;;;24.77;72.22
31088;BME280;17745;55.914;37.554;2023-07-28T03:08:23;97651.66;;;24.75;72.08
31088;BME280;17745;55.914;37.554;2023-07-28T03:11:32;97638.94;;;24.76;72.06
31088;BME280;17745;55.914;37.554;2023-07-28T03:14:03;97647.03;;;24.76;72.03
31088;BME280;17745;55.914;37.554;2023-07-28T03:16:44;97651.66;;;24.75;72.01
31088;BME280;17745;55.914;37.554;2023-07-28T03:19:22;97637.78;;;24.80;71.74
31088;BME280;17745;55.914;37.554;2023-07-28T03:25:16;97646.97;;;25.63;70.06
31088;BME280;17745;55.914;37.554;2023-07-28T03:27:48;97646.97;;;25.63;70.06
31088;BME280;17745;55.914;37.554;2023-07-28T03:30:42;97680.69;;;25.29;70.59
31088;BME280;17745;55.914;37.554;2023-07-28T03:33:49;97700.38;;;25.40;70.35
31088;BME280;17745;55.914;37.554;2023-07-28T03:36:27;97707.37;;;25.49;70.13
31088;BME280;17745;55.914;37.554;2023-07-28T03:39:08;97717.44;;;25.55;69.97
31088;BME280;17745;55.914;37.554;2023-07-28T03:42:15;97695.34;;;25.61;69.54
31088;BME280;17745;55.914;37.554;2023-07-28T03:52:06;97667.03;;;25.87;68.25
31088;BME280;17745;55.914;37.554;2023-07-28T03:55:07;97717.78;;;25.79;68.03
31088;BME280;17745;55.914;37.554;2023-07-28T03:58:18;97753.78;;;25.73;67.32
31088;BME280;17745;55.914;37.554;2023-07-28T04:00:58;97773.97;;;25.53;66.83
31088;BME280;17745;55.914;37.554;2023-07-28T04:03:53;97790.53;;;25.26;67.40
31088;BME280;17745;55.914;37.554;2023-07-28T04:06:50;97830.34;;;24.97;67.44
31088;BME280;17745;55.914;37.554;2023-07-28T04:09:57;97860.38;;;24.70;67.89
31088;BME280;17745;55.914;37.554;2023-07-28T04:19:58;97777.19;;;23.78;69.08
31088;BME280;17745;55.914;37.554;2023-07-28T04:22:51;97716.47;;;23.58;69.34
31088;BME280;17745;55.914;37.554;2023-07-28T04:26:09;97604.47;;;23.37;69.39
31088;BME280;17745;55.914;37.554;2023-07-28T04:29:19;97567.28;;;23.12;69.69
31088;BME280;17745;55.914;37.554;2023-07-28T04:32:12;97537.13;;;23.03;69.93
31088;BME280;17745;55.914;37.554;2023-07-28T04:35:15;97524.41;;;22.96;70.14
31088;BME280;17745;55.914;37.554;2023-07-28T04:38:07;97511.69;;;23.00;70.18
31088;BME280;17745;55.914;37.554;2023-07-28T04:41:01;97537.53;;;23.01;70.20
31088;BME280;17745;55.914;37.554;2023-07-28T04:43:51;97539.06;;;23.02;70.38
31088;BME280;17745;55.914;37.554;2023-07-28T04:46:57;97535.97;;;23.04;70.64
31088;BME280;17745;55.914;37.554;2023-07-28T04:49:56;97549.91;;;23.09;70.60
31088;BME280;17745;55.914;37.554;2023-07-28T05:18:26;97609.84;;;24.25;70.45
31088;BME280;17745;55.914;37.554;2023-07-28T05:22:16;97613.72;;;24.42;70.72
31088;BME280;17745;55.914;37.554;2023-07-28T05:25:23;97607.19;;;24.73;70.54
31088;BME280;17745;55.914;37.554;2023-07-28T05:29:39;97622.28;;;24.92;70.54
31088;BME280;17745;55.914;37.554;2023-07-28T05:32:59;97623.03;;;25.18;70.18
31088;BME280;17745;55.914;37.554;2023-07-28T05:36:52;97619.16;;;25.33;69.62
31088;BME280;17745;55.914;37.554;2023-07-28T05:40:07;97620.69;;;25.34;68.90
31088;BME280;17745;55.914;37.554;2023-07-28T05:43:32;97633.84;;;25.36;69.03
31088;BME280;17745;55.914;37.554;2023-07-28T05:51:05;97626.44;;;25.65;68.79
31088;BME280;17745;55.914;37.554;2023-07-28T06:08:33;97624.41;;;27.11;64.98
31088;BME280;17745;55.914;37.554;2023-07-28T06:12:33;97619.72;;;27.16;64.86
31088;BME280;17745;55.914;37.554;2023-07-28T06:15:52;97622.81;;;27.14;64.35
31088;BME280;17745;55.914;37.554;2023-07-28T07:26:06;97755.16;;;23.24;67.86
31088;BME280;17745;55.914;37.554;2023-07-28T07:29:45;97714.37;;;23.33;67.72
31088;BME280;17745;55.914;37.554;2023-07-28T07:33:23;97680.47;;;23.39;67.69
31088;BME280;17745;55.914;37.554;2023-07-28T07:36:27;97707.16;;;23.48;67.66
31088;BME280;17745;55.914;37.554;2023-07-28T09:54:33;97868.50;;;27.06;55.73
31088;BME280;17745;55.914;37.554;2023-07-28T13:06:05;97973.91;;;25.19;55.97
31088;BME280;17745;55.914;37.554;2023-07-28T13:09:58;97970.31;;;24.93;56.37
31088;BME280;17745;55.914;37.554;2023-07-28T14:13:42;97906.84;;;20.69;69.40
31088;BME280;17745;55.914;37.554;2023-07-28T14:16:18;97879.53;;;20.32;71.19
31088;BME280;17745;55.914;37.554;2023-07-28T14:18:52;97891.59;;;20.22;71.49
31088;BME280;17745;55.914;37.554;2023-07-28T14:21:27;97886.22;;;20.06;72.02
31088;BME280;17745;55.914;37.554;2023-07-28T14:24:05;97900.09;;;20.08;72.10
31088;BME280;17745;55.914;37.554;2023-07-28T14:26:46;97908.91;;;20.24;71.97
31088;BME280;17745;55.914;37.554;2023-07-28T14:33:03;97885.09;;;20.59;71.69
31088;BME280;17745;55.914;37.554;2023-07-28T14:36:32;97893.81;;;20.71;71.71
31088;BME280;17745;55.914;37.554;2023-07-28T14:39:25;97919.50;;;20.85;71.60
31088;BME280;17745;55.914;37.554;2023-07-28T15:57:54;97995.75;;;22.61;69.73
31088;BME280;17745;55.914;37.554;2023-07-28T16:00:52;98002.59;;;22.08;69.46
31088;BME280;17745;55.914;37.554;2023-07-28T16:03:53;98012.22;;;22.33;68.83
31088;BME280;17745;55.914;37.554;2023-07-28T16:10:07;98030.09;;;22.41;68.82
31088;BME280;17745;55.914;37.554;2023-07-28T16:30:54;98026.09;;;21.88;70.64
31088;BME280;17745;55.914;37.554;2023-07-28T16:33:29;98027.56;;;22.05;70.53
31088;BME280;17745;55.914;37.554;2023-07-28T16:36:05;98031.41;;;22.04;70.41
31088;BME280;17745;55.914;37.554;2023-07-28T16:38:38;98056.13;;;22.10;70.26
31088;BME280;17745;55.914;37.554;2023-07-28T16:41:20;98065.53;;;22.20;70.63
31088;BME280;17745;55.914;37.554;2023-07-28T16:44:14;98069.56;;;22.30;70.67
31088;BME280;17745;55.914;37.554;2023-07-28T16:47:12;98063.75;;;22.27;70.72
31088;BME280;17745;55.914;37.554;2023-07-28T16:49:54;98058.97;;;22.17;70.50
31088;BME280;17745;55.914;37.554;2023-07-28T16:52:54;98043.44;;;22.10;70.78
31088;BME280;17745;55.914;37.554;2023-07-28T16:55:55;98024.12;;;21.85;70.68
31088;BME280;17745;55.914;37.554;2023-07-28T16:59:01;98021.56;;;21.73;71.01
31088;BME280;17745;55.914;37.554;2023-07-28T17:02:07;98024.50;;;21.64;71.16
31088;BME280;17745;55.914;37.554;2023-07-28T17:05:47;98037.38;;;21.74;71.65
31088;BME280;17745;55.914;37.554;2023-07-28T17:09:45;98039.75;;;21.76;71.66
31088;BME280;17745;55.914;37.554;2023-07-28T17:16:51;98054.75;;;21.57;71.93
31088;BME280;17745;55.914;37.554;2023-07-28T17:20:27;98060.13;;;21.57;72.25
31088;BME280;17745;55.914;37.554;2023-07-28T17:46:38;98061.47;;;21.11;72.63
31088;BME280;17745;55.914;37.554;2023-07-28T17:49:27;98063.94;;;20.84;72.92
31088;BME280;17745;55.914;37.554;2023-07-28T17:52:08;98059.75;;;20.71;73.07
31088;BME280;17745;55.914;37.554;2023-07-28T17:55:10;98064.13;;;19.99;74.43
31088;BME280;17745;55.914;37.554;2023-07-28T17:57:42;98063.97;;;20.08;74.25
31088;BME280;17745;55.914;37.554;2023-07-28T18:00:21;98063.47;;;20.02;74.20
31088;BME280;17745;55.914;37.554;2023-07-28T18:06:18;98061.47;;;19.86;74.80
31088;BME280;17745;55.914;37.554;2023-07-28T18:08:59;98066.88;;;19.74;74.91
31088;BME280;17745;55.914;37.554;2023-07-28T18:11:43;98077.19;;;19.72;75.11
31088;BME280;17745;55.914;37.554;2023-07-28T18:14:44;98077.28;;;19.76;75.23
31088;BME280;17745;55.914;37.554;2023-07-28T18:17:46;98080.66;;;19.73;75.35
31088;BME280;17745;55.914;37.554;2023-07-28T18:20:36;98081.34;;;19.69;75.66
31088;BME280;17745;55.914;37.554;2023-07-28T18:23:50;98080.56;;;19.69;75.83
31088;BME280;17745;55.914;37.554;2023-07-28T18:26:54;98076.00;;;19.69;75.94
31088;BME280;17745;55.914;37.554;2023-07-28T18:29:50;98077.00;;;19.65;76.01
31088;BME280;17745;55.914;37.554;2023-07-28T18:33:17;98072.94;;;19.71;76.19
31088;BME280;17745;55.914;37.554;2023-07-28T18:37:05;98080.00;;;19.63;76.35
31088;BME280;17745;55.914;37.554;2023-07-28T18:57:44;98065.31;;;17.78;82.12
31088;BME280;17745;55.914;37.554;2023-07-28T19:00:42;98068.72;;;17.87;81.93
31088;BME280;17745;55.914;37.554;2023-07-28T19:03:39;98085.56;;;18.09;81.10
31088;BME280;17745;55.914;37.554;2023-07-28T19:06:46;98086.09;;;18.61;79.29
31088;BME280;17745;55.914;37.554;2023-07-28T19:09:37;98087.69;;;18.86;78.39
31088;BME280;17745;55.914;37.554;2023-07-28T19:12:25;98090.66;;;18.48;79.22
31088;BME280;17745;55.914;37.554;2023-07-28T19:15:32;98090.81;;;18.76;78.49
31088;BME280;17745;55.914;37.554;2023-07-28T19:18:24;98088.78;;;18.48;79.20
31088;BME280;17745;55.914;37.554;2023-07-28T19:27:55;98089.72;;;17.97;84.52
31088;BME280;17745;55.914;37.554;2023-07-28T19:34:42;98076.16;;;17.60;86.50
31088;BME280;17745;55.914;37.554;2023-07-28T19:37:16;98089.16;;;17.70;86.29
31088;BME280;17745;55.914;37.554;2023-07-28T19:40:08;98102.34;;;17.76;85.64
31088;BME280;17745;55.914;37.554;2023-07-28T19:43:35;98089.41;;;17.78;85.18
31088;BME280;17745;55.914;37.554;2023-07-28T19:46:27;98109.78;;;17.70;85.53
31088;BME280;17745;55.914;37.554;2023-07-28T19:49:07;98096.84;;;17.72;85.94
31088;BME280;17745;55.914;37.554;2023-07-28T19:55:12;98114.06;;;17.62;85.92
31088;BME280;17745;55.914;37.554;2023-07-28T19:58:00;98116.94;;;17.57;85.76
31088;BME280;17745;55.914;37.554;2023-07-28T20:00:44;98115.62;;;17.63;85.34
31088;BME280;17745;55.914;37.554;2023-07-28T20:03:15;98126.94;;;17.18;86.42
31088;BME280;17745;55.914;37.554;2023-07-28T20:05:57;98132.59;;;17.46;85.15
31088;BME280;17745;55.914;37.554;2023-07-28T20:12:35;98155.41;;;17.22;85.60
31088;BME280;17745;55.914;37.554;2023-07-28T20:15:11;98136.25;;;17.11;86.58
31088;BME280;17745;55.914;37.554;2023-07-28T20:17:43;98141.28;;;17.13;86.15
31088;BME280;17745;55.914;37.554;2023-07-28T20:20:18;98135.50;;;17.02;86.67
31088;BME280;17745;55.914;37.554;2023-07-28T20:22:50;98137.81;;;17.12;86.32
31088;BME280;17745;55.914;37.554;2023-07-28T20:25:27;98148.78;;;17.20;86.15
31088;BME280;17745;55.914;37.554;2023-07-28T20:27:59;98155.72;;;17.21;86.25
31088;BME280;17745;55.914;37.554;2023-07-28T20:30:30;98166.88;;;17.23;86.03
31088;BME280;17745;55.914;37.554;2023-07-28T20:33:12;98172.37;;;17.26;86.05
31088;BME280;17745;55.914;37.554;2023-07-28T20:35:46;98171.41;;;17.31;85.98
31088;BME280;17745;55.914;37.554;2023-07-28T20:38:14;98170.94;;;17.29;86.04
31088;BME280;17745;55.914;37.554;2023-07-28T20:40:46;98175.00;;;17.35;86.11
31088;BME280;17745;55.914;37.554;2023-07-28T20:43:19;98175.81;;;17.36;86.92
31088;BME280;17745;55.914;37.554;2023-07-28T20:45:48;98183.62;;;17.41;86.78
31088;BME280;17745;55.914;37.554;2023-07-28T20:48:17;98187.22;;;17.45;86.81
31088;BME280;17745;55.914;37.554;2023-07-28T20:50:45;98190.09;;;17.40;86.85
31088;BME280;17745;55.914;37.554;2023-07-28T20:53:15;98181.91;;;17.36;86.84
31088;BME280;17745;55.914;37.554;2023-07-28T20:55:48;98196.72;;;17.34;87.05
31088;BME280;17745;55.914;37.554;2023-07-28T20:58:18;98201.28;;;17.33;87.03
31088;BME280;17745;55.914;37.554;2023-07-28T21:00:48;98202.87;;;17.34;87.26
31088;BME280;17745;55.914;37.554;2023-07-28T21:03:17;98201.44;;;17.37;87.10
31088;BME280;17745;55.914;37.554;2023-07-28T21:05:46;98189.63;;;17.38;86.70
31088;BME280;17745;55.914;37.554;2023-07-28T21:08:17;98193.88;;;17.39;86.68
31088;BME280;17745;55.914;37.554;2023-07-28T21:10:46;98207.75;;;17.32;86.73
31088;BME280;17745;55.914;37.554;2023-07-28T21:13:19;98198.62;;;17.33;86.29
31088;BME280;17745;55.914;37.554;2023-07-28T21:15:50;98210.87;;;17.34;86.52
31088;BME280;17745;55.914;37.554;2023-07-28T21:18:18;98204.47;;;17.26;85.97
31088;BME280;17745;55.914;37.554;2023-07-28T21:20:48;98211.00;;;16.99;86.73
31088;BME280;17745;55.914;37.554;2023-07-28T21:23:20;98198.28;;;16.87;87.00
31088;BME280;17745;55.914;37.554;2023-07-28T21:25:49;98200.16;;;16.95;86.87
31088;BME280;17745;55.914;37.554;2023-07-28T21:28:19;98207.69;;;17.02;86.72
31088;BME280;17745;55.914;37.554;2023-07-28T21:30:47;98203.75;;;17.08;86.56
31088;BME280;17745;55.914;37.554;2023-07-28T21:33:16;98203.63;;;16.87;86.12
31088;BME280;17745;55.914;37.554;2023-07-28T21:35:44;98212.91;;;16.81;87.55
31088;BME280;17745;55.914;37.554;2023-07-28T21:38:13;98216.69;;;16.89;87.33
31088;BME280;17745;55.914;37.554;2023-07-28T21:40:41;98215.59;;;16.98;86.92
31088;BME280;17745;55.914;37.554;2023-07-28T21:43:11;98218.37;;;17.02;87.02
31088;BME280;17745;55.914;37.554;2023-07-28T21:45:42;98220.09;;;17.07;86.69
31088;BME280;17745;55.914;37.554;2023-07-28T21:48:14;98222.59;;;17.12;86.70
31088;BME280;17745;55.914;37.554;2023-07-28T21:50:45;98228.78;;;17.04;87.24
31088;BME280;17745;55.914;37.554;2023-07-28T21:53:17;98225.31;;;17.03;87.21
31088;BME280;17745;55.914;37.554;2023-07-28T21:55:48;98224.69;;;17.06;87.03
31088;BME280;17745;55.914;37.554;2023-07-28T21:58:21;98228.31;;;17.02;87.37
31088;BME280;17745;55.914;37.554;2023-07-28T22:00:56;98227.66;;;16.96;87.60
31088;BME280;17745;55.914;37.554;2023-07-28T22:03:25;98228.78;;;17.04;87.14
31088;BME280;17745;55.914;37.554;2023-07-28T22:05:55;98222.75;;;17.15;86.64
31088;BME280;17745;55.914;37.554;2023-07-28T22:08:23;98205.50;;;17.04;86.98
31088;BME280;17745;55.914;37.554;2023-07-28T22:11:08;98210.25;;;16.98;87.31
31088;BME280;17745;55.914;37.554;2023-07-28T22:13:39;98212.44;;;17.05;86.72
31088;BME280;17745;55.914;37.554;2023-07-28T22:16:12;98197.63;;;16.99;87.22
31088;BME280;17745;55.914;37.554;2023-07-28T22:18:42;98186.94;;;16.90;87.17
31088;BME280;17745;55.914;37.554;2023-07-28T22:21:15;98181.63;;;16.72;87.85
31088;BME280;17745;55.914;37.554;2023-07-28T22:23:45;98163.56;;;16.69;88.15
31088;BME280;17745;55.914;37.554;2023-07-28T22:26:17;98176.44;;;16.76;87.84
31088;BME280;17745;55.914;37.554;2023-07-28T22:28:50;98167.91;;;16.92;86.99
31088;BME280;17745;55.914;37.554;2023-07-28T22:31:37;98173.09;;;16.97;86.96
31088;BME280;17745;55.914;37.554;2023-07-28T22:34:09;98195.88;;;17.03;86.51
31088;BME280;17745;55.914;37.554;2023-07-28T22:36:41;98190.53;;;17.03;86.23
31088;BME280;17745;55.914;37.554;2023-07-28T22:39:10;98184.56;;;17.06;86.05
31088;BME280;17745;55.914;37.554;2023-07-28T22:41:39;98186.00;;;17.04;86.09
31088;BME280;17745;55.914;37.554;2023-07-28T22:44:10;98185.34;;;17.07;85.85
31088;BME280;17745;55.914;37.554;2023-07-28T22:46:43;98180.16;;;17.10;85.49
31088;BME280;17745;55.914;37.554;2023-07-28T22:49:13;98179.81;;;17.12;85.33
31088;BME280;17745;55.914;37.554;2023-07-28T22:51:44;98177.97;;;16.95;85.63
31088;BME280;17745;55.914;37.554;2023-07-28T22:54:14;98177.19;;;16.94;85.82
31088;BME280;17745;55.914;37.554;2023-07-28T22:56:46;98163.22;;;16.89;85.43
31088;BME280;17745;55.914;37.554;2023-07-28T22:59:16;98167.69;;;16.58;86.20
31088;BME280;17745;55.914;37.554;2023-07-28T23:01:54;98179.09;;;16.85;85.98
31088;BME280;17745;55.914;37.554;2023-07-28T23:04:23;98185.84;;;16.91;85.95
31088;BME280;17745;55.914;37.554;2023-07-28T23:06:55;98191.34;;;17.04;85.58
31088;BME280;17745;55.914;37.554;2023-07-28T23:09:23;98191.97;;;17.09;85.41
31088;BME280;17745;55.914;37.554;2023-07-28T23:11:53;98193.72;;;17.05;85.53
31088;BME280;17745;55.914;37.554;2023-07-28T23:14:22;98196.31;;;17.14;85.32
31088;BME280;17745;55.914;37.554;2023-07-28T23:17:08;98199.50;;;17.16;84.85
31088;BME280;17745;55.914;37.554;2023-07-28T23:19:43;98210.16;;;17.25;84.73
31088;BME280;17745;55.914;37.554;2023-07-28T23:22:16;98200.06;;;17.22;84.74
31088;BME280;17745;55.914;37.554;2023-07-28T23:24:59;98190.47;;;17.21;84.66
31088;BME280;17745;55.914;37.554;2023-07-28T23:27:33;98184.84;;;17.13;84.96
31088;BME280;17745;55.914;37.554;2023-07-28T23:30:05;98178.59;;;17.09;84.79
31088;BME280;17745;55.914;37.554;2023-07-28T23:32:51;98183.44;;;17.16;84.52
31088;BME280;17745;55.914;37.554;2023-07-28T23:35:21;98180.13;;;17.19;84.46
31088;BME280;17745;55.914;37.554;2023-07-28T23:37:50;98182.38;;;17.08;84.63
31088;BME280;17745;55.914;37.554;2023-07-28T23:40:20;98182.69;;;16.89;85.13
31088;BME280;17745;55.914;37.554;2023-07-28T23:42:48;98174.81;;;17.10;84.57
31088;BME280;17745;55.914;37.554;2023-07-28T23:45:17;98178.28;;;17.02;84.61
31088;BME280;17745;55.914;37.554;2023-07-28T23:47:52;98182.50;;;17.12;84.24
31088;BME280;17745;55.914;37.554;2023-07-28T23:50:21;98183.59;;;17.11;84.21
31088;BME280;17745;55.914;37.554;2023-07-28T23:52:50;98197.63;;;16.90;84.77
31088;BME280;17745;55.914;37.554;2023-07-28T23:55:26;98202.19;;;17.07;84.48
31088;BME280;17745;55.914;37.554;2023-07-28T23:58:00;98196.66;;;17.12;84.23
